createdAt,value
2023-01-17T00:00:52.370Z,2.41
2023-01-17T00:01:53.619Z,2.38
2023-01-17T00:02:57.261Z,2.38
2023-01-17T00:03:58.599Z,2.36
2023-01-17T00:04:59.897Z,2.35
2023-01-17T00:06:03.761Z,2.36
2023-01-17T00:07:04.946Z,2.34
2023-01-17T00:08:09.257Z,2.30
2023-01-17T00:09:11.520Z,2.29
2023-01-17T00:10:14.299Z,2.34
2023-01-17T00:11:16.898Z,2.32
2023-01-17T00:12:18.797Z,2.25
2023-01-17T00:13:20.057Z,2.27
2023-01-17T00:14:21.245Z,2.30
2023-01-17T00:15:23.031Z,2.28
2023-01-17T00:16:24.247Z,2.27
2023-01-17T00:17:26.356Z,2.26
2023-01-17T00:18:27.590Z,2.25
2023-01-17T00:19:29.055Z,2.27
2023-01-17T00:20:31.369Z,2.24
2023-01-17T00:21:32.746Z,2.24
2023-01-17T00:22:34.018Z,2.21
2023-01-17T00:23:35.209Z,2.20
2023-01-17T00:24:36.485Z,2.19
2023-01-17T00:25:38.486Z,2.18
2023-01-17T00:26:39.675Z,2.19
2023-01-17T00:27:41.044Z,2.26
2023-01-17T00:28:43.302Z,2.29
2023-01-17T00:29:44.651Z,2.30
2023-01-17T00:30:46.216Z,2.31
2023-01-17T00:31:49.564Z,2.35
2023-01-17T00:32:50.796Z,2.36
2023-01-17T00:33:52.098Z,2.40
2023-01-17T00:34:53.721Z,2.40
2023-01-17T00:35:56.366Z,2.41
2023-01-17T00:36:57.584Z,2.45
2023-01-17T00:38:02.591Z,2.45
2023-01-17T00:39:03.866Z,2.40
2023-01-17T00:40:05.370Z,2.45
2023-01-17T00:41:08.085Z,2.45
2023-01-17T00:42:09.384Z,2.39
2023-01-17T00:43:11.423Z,2.36
2023-01-17T00:44:12.697Z,2.35
2023-01-17T00:45:14.017Z,2.36
2023-01-17T00:46:15.505Z,2.30
2023-01-17T00:47:17.038Z,2.29
2023-01-17T00:48:18.294Z,2.25
2023-01-17T00:49:19.477Z,2.25
2023-01-17T00:50:20.773Z,2.22
2023-01-17T00:51:22.785Z,2.24
2023-01-17T00:52:24.004Z,2.26
2023-01-17T00:53:25.215Z,2.28
2023-01-17T00:54:28.781Z,2.29
2023-01-17T00:55:30.032Z,2.27
2023-01-17T00:56:31.314Z,2.28
2023-01-17T00:57:32.555Z,2.29
2023-01-17T00:58:34.006Z,2.27
2023-01-17T00:59:35.850Z,2.30
2023-01-17T01:00:37.524Z,2.30
2023-01-17T01:01:38.895Z,2.28
2023-01-17T01:02:40.315Z,2.28
2023-01-17T01:03:41.570Z,2.28
2023-01-17T01:04:42.991Z,2.30
2023-01-17T01:05:44.257Z,2.35
2023-01-17T01:06:45.522Z,2.37
2023-01-17T01:07:46.815Z,2.36
2023-01-17T01:08:48.144Z,2.41
2023-01-17T01:09:49.423Z,2.41
2023-01-17T01:10:50.703Z,2.53
2023-01-17T01:11:51.894Z,2.53
2023-01-17T01:12:53.078Z,2.60
2023-01-17T01:13:54.555Z,2.57
2023-01-17T01:14:55.811Z,2.54
2023-01-17T01:16:00.397Z,2.52
2023-01-17T01:17:01.746Z,2.51
2023-01-17T01:18:11.399Z,2.54
2023-01-17T01:19:12.631Z,2.64
2023-01-17T01:20:13.927Z,2.64
2023-01-17T01:21:15.187Z,2.66
2023-01-17T01:22:16.429Z,2.65
2023-01-17T01:23:17.806Z,2.65
2023-01-17T01:24:19.029Z,2.65
2023-01-17T01:25:20.371Z,2.69
2023-01-17T01:26:22.853Z,2.69
2023-01-17T01:27:24.469Z,2.68
2023-01-17T01:28:25.687Z,2.66
2023-01-17T01:29:26.909Z,2.63
2023-01-17T01:30:28.169Z,2.58
2023-01-17T01:31:29.638Z,2.58
2023-01-17T01:32:33.802Z,2.58
2023-01-17T01:33:35.098Z,2.60
2023-01-17T01:34:36.294Z,2.55
2023-01-17T01:35:37.556Z,2.52
2023-01-17T01:36:39.138Z,2.47
2023-01-17T01:37:42.667Z,2.45
2023-01-17T01:38:43.921Z,2.42
2023-01-17T01:39:46.193Z,2.43
2023-01-17T01:40:51.555Z,2.43
2023-01-17T01:41:53.034Z,2.44
2023-01-17T01:42:55.983Z,2.42
2023-01-17T01:43:58.270Z,2.40
2023-01-17T01:44:59.504Z,2.41
2023-01-17T01:46:01.122Z,2.41
2023-01-17T01:47:02.571Z,2.41
2023-01-17T01:48:13.558Z,2.42
2023-01-17T01:49:19.555Z,2.46
2023-01-17T01:50:21.408Z,2.46
2023-01-17T01:51:25.671Z,2.47
2023-01-17T01:52:28.873Z,2.46
2023-01-17T01:53:31.759Z,2.47
2023-01-17T01:54:59.611Z,2.47
2023-01-17T01:56:03.200Z,2.50
2023-01-17T01:57:06.961Z,2.53
2023-01-17T01:58:15.183Z,2.51
2023-01-17T01:59:19.746Z,2.52
2023-01-17T02:00:30.075Z,2.51
2023-01-17T02:01:33.345Z,2.51
2023-01-17T02:02:35.346Z,2.50
2023-01-17T02:03:38.634Z,2.52
2023-01-17T02:04:39.988Z,2.55
2023-01-17T02:05:42.450Z,2.55
2023-01-17T02:06:45.991Z,2.53
2023-01-17T02:07:52.046Z,2.53
2023-01-17T02:08:53.571Z,2.52
2023-01-17T02:09:55.008Z,2.54
2023-01-17T02:10:56.340Z,2.52
2023-01-17T02:11:57.925Z,2.53
2023-01-17T02:13:00.241Z,2.50
2023-01-17T02:14:02.420Z,2.53
2023-01-17T02:15:05.718Z,2.55
2023-01-17T02:16:27.608Z,2.55
2023-01-17T02:17:34.376Z,2.58
2023-01-17T02:18:54.250Z,2.60
2023-01-17T02:20:14.027Z,2.61
2023-01-17T02:21:24.560Z,2.62
2023-01-17T02:22:44.933Z,2.64
2023-01-17T02:24:01.460Z,2.64
2023-01-17T02:25:29.042Z,2.62
2023-01-17T02:26:36.789Z,2.65
2023-01-17T02:27:50.659Z,2.64
2023-01-17T02:28:58.322Z,2.66
2023-01-17T02:30:12.179Z,2.68
2023-01-17T02:31:36.919Z,2.67
2023-01-17T02:32:46.474Z,2.66
2023-01-17T02:33:57.171Z,2.68
2023-01-17T02:35:04.090Z,2.65
2023-01-17T02:36:10.645Z,2.65
2023-01-17T02:37:16.933Z,2.63
2023-01-17T02:38:37.027Z,2.62
2023-01-17T02:39:43.639Z,2.65
2023-01-17T02:40:47.455Z,2.67
2023-01-17T02:41:54.818Z,2.67
2023-01-17T02:43:05.143Z,2.65
2023-01-17T02:44:08.654Z,2.65
2023-01-17T02:45:14.716Z,2.63
2023-01-17T02:46:16.069Z,2.63
2023-01-17T02:47:24.944Z,2.65
2023-01-17T02:48:28.682Z,2.64
2023-01-17T02:49:31.654Z,2.65
2023-01-17T02:50:43.855Z,2.64
2023-01-17T02:51:54.263Z,2.61
2023-01-17T02:53:03.905Z,2.65
2023-01-17T02:54:15.707Z,2.64
2023-01-17T02:55:20.130Z,2.64
2023-01-17T02:56:33.630Z,2.64
2023-01-17T02:57:52.425Z,2.64
2023-01-17T02:59:05.334Z,2.62
2023-01-17T03:00:17.979Z,2.63
2023-01-17T03:01:19.225Z,2.63
2023-01-17T03:02:29.329Z,2.64
2023-01-17T03:03:37.204Z,2.63
2023-01-17T03:04:42.659Z,2.66
2023-01-17T03:05:50.729Z,2.65
2023-01-17T03:06:55.635Z,2.63
2023-01-17T03:07:57.482Z,2.63
2023-01-17T03:08:58.686Z,2.64
2023-01-17T03:10:01.591Z,2.69
2023-01-17T03:11:02.896Z,2.68
2023-01-17T03:12:04.493Z,2.65
2023-01-17T03:13:05.731Z,2.64
2023-01-17T03:14:07.094Z,2.64
2023-01-17T03:15:09.964Z,2.64
2023-01-17T03:16:21.689Z,2.66
2023-01-17T03:17:25.043Z,2.64
2023-01-17T03:18:26.761Z,2.63
2023-01-17T03:19:28.187Z,2.61
2023-01-17T03:20:29.535Z,2.59
2023-01-17T03:21:30.891Z,2.59
2023-01-17T03:22:32.361Z,2.61
2023-01-17T03:23:33.672Z,2.60
2023-01-17T03:24:37.393Z,2.61
2023-01-17T03:25:38.741Z,2.62
2023-01-17T03:26:40.012Z,2.61
2023-01-17T03:27:41.507Z,2.62
2023-01-17T03:28:42.804Z,2.63
2023-01-17T03:29:44.129Z,2.64
2023-01-17T03:30:45.688Z,2.63
2023-01-17T03:31:46.887Z,2.61
2023-01-17T03:32:48.427Z,2.63
2023-01-17T03:33:51.252Z,2.62
2023-01-17T03:34:52.493Z,2.62
2023-01-17T03:35:53.981Z,2.60
2023-01-17T03:36:57.467Z,2.59
2023-01-17T03:37:58.950Z,2.60
2023-01-17T03:39:00.286Z,2.59
2023-01-17T03:40:04.628Z,2.54
2023-01-17T03:41:06.281Z,2.58
2023-01-17T03:42:07.993Z,2.65
2023-01-17T03:43:12.173Z,2.63
2023-01-17T03:44:13.459Z,2.61
2023-01-17T03:45:14.767Z,2.62
2023-01-17T03:46:23.989Z,2.62
2023-01-17T03:47:25.366Z,2.60
2023-01-17T03:48:26.559Z,2.62
2023-01-17T03:49:27.972Z,2.63
2023-01-17T03:50:29.273Z,2.65
2023-01-17T03:51:30.535Z,2.68
2023-01-17T03:52:31.913Z,2.67
2023-01-17T03:53:34.800Z,2.69
2023-01-17T03:54:36.116Z,2.70
2023-01-17T03:55:37.344Z,2.71
2023-01-17T03:56:38.544Z,2.77
2023-01-17T03:57:40.001Z,2.73
2023-01-17T03:58:41.666Z,2.71
2023-01-17T03:59:43.016Z,2.66
2023-01-17T04:00:46.987Z,2.61
2023-01-17T04:01:48.492Z,2.63
2023-01-17T04:02:50.400Z,2.59
2023-01-17T04:03:52.862Z,2.57
2023-01-17T04:04:57.654Z,2.52
2023-01-17T04:06:01.895Z,2.50
2023-01-17T04:07:03.241Z,2.50
2023-01-17T04:08:05.461Z,2.46
2023-01-17T04:09:06.693Z,2.46
2023-01-17T04:10:09.345Z,2.41
2023-01-17T04:11:10.591Z,2.39
2023-01-17T04:12:11.842Z,2.37
2023-01-17T04:13:13.029Z,2.32
2023-01-17T04:14:14.317Z,2.39
2023-01-17T04:15:15.521Z,2.36
2023-01-17T04:16:17.870Z,2.35
2023-01-17T04:17:19.732Z,2.33
2023-01-17T04:18:21.392Z,2.32
2023-01-17T04:19:23.794Z,2.28
2023-01-17T04:20:31.546Z,2.24
2023-01-17T04:21:32.800Z,2.19
2023-01-17T04:22:34.281Z,2.18
2023-01-17T04:23:35.826Z,2.19
2023-01-17T04:24:37.074Z,2.19
2023-01-17T04:25:39.712Z,2.16
2023-01-17T04:26:40.962Z,2.18
2023-01-17T04:27:42.309Z,2.17
2023-01-17T04:28:43.790Z,2.16
2023-01-17T04:29:46.735Z,2.13
2023-01-17T04:30:48.309Z,2.13
2023-01-17T04:31:49.630Z,2.13
2023-01-17T04:32:50.915Z,2.09
2023-01-17T04:33:52.202Z,2.08
2023-01-17T04:34:53.405Z,2.07
2023-01-17T04:35:55.286Z,2.06
2023-01-17T04:36:56.542Z,2.06
2023-01-17T04:37:57.846Z,2.03
2023-01-17T04:39:00.671Z,2.04
2023-01-17T04:40:01.916Z,2.00
2023-01-17T04:41:03.718Z,1.98
2023-01-17T04:42:05.492Z,1.95
2023-01-17T04:43:06.697Z,1.95
2023-01-17T04:44:07.960Z,1.93
2023-01-17T04:45:10.024Z,1.92
2023-01-17T04:46:13.512Z,1.92
2023-01-17T04:47:15.354Z,1.93
2023-01-17T04:48:16.663Z,1.91
2023-01-17T04:49:17.919Z,1.94
2023-01-17T04:50:19.272Z,1.95
2023-01-17T04:51:20.507Z,1.97
2023-01-17T04:52:22.900Z,1.99
2023-01-17T04:53:24.373Z,2.02
2023-01-17T04:54:25.664Z,2.00
2023-01-17T04:55:28.261Z,2.01
2023-01-17T04:56:29.554Z,2.02
2023-01-17T04:57:30.909Z,2.03
2023-01-17T04:58:32.312Z,2.02
2023-01-17T04:59:33.554Z,2.05
2023-01-17T05:00:34.858Z,2.03
2023-01-17T05:01:36.469Z,2.05
2023-01-17T05:02:37.928Z,2.04
2023-01-17T05:03:39.221Z,2.05
2023-01-17T05:04:41.797Z,2.06
2023-01-17T05:05:44.378Z,2.08
2023-01-17T05:06:46.672Z,2.09
2023-01-17T05:07:53.266Z,2.11
2023-01-17T05:08:54.537Z,2.11
2023-01-17T05:09:55.958Z,2.11
2023-01-17T05:10:57.189Z,2.08
2023-01-17T05:11:58.473Z,2.03
2023-01-17T05:12:59.857Z,2.01
2023-01-17T05:14:01.088Z,1.95
2023-01-17T05:15:02.462Z,1.93
2023-01-17T05:16:04.096Z,1.90
2023-01-17T05:17:05.666Z,1.86
2023-01-17T05:18:07.192Z,1.83
2023-01-17T05:19:08.514Z,1.84
2023-01-17T05:20:10.126Z,1.82
2023-01-17T05:21:11.370Z,1.83
2023-01-17T05:22:13.393Z,1.81
2023-01-17T05:23:15.181Z,1.78
2023-01-17T05:24:16.734Z,1.75
2023-01-17T05:25:18.018Z,1.73
2023-01-17T05:26:19.219Z,1.71
2023-01-17T05:27:20.579Z,1.73
2023-01-17T05:28:21.977Z,1.69
2023-01-17T05:29:25.238Z,1.69
2023-01-17T05:30:26.933Z,1.69
2023-01-17T05:31:28.255Z,1.69
2023-01-17T05:32:30.077Z,1.65
2023-01-17T05:33:31.478Z,1.64
2023-01-17T05:34:33.751Z,1.59
2023-01-17T05:35:35.195Z,1.58
2023-01-17T05:36:36.476Z,1.54
2023-01-17T05:37:38.764Z,1.54
2023-01-17T05:38:40.200Z,1.54
2023-01-17T05:39:41.469Z,1.50
2023-01-17T05:40:42.795Z,1.46
2023-01-17T05:41:44.193Z,1.46
2023-01-17T05:42:46.301Z,1.46
2023-01-17T05:43:47.645Z,1.43
2023-01-17T05:44:49.103Z,1.40
2023-01-17T05:45:50.335Z,1.38
2023-01-17T05:46:51.566Z,1.37
2023-01-17T05:47:53.306Z,1.39
2023-01-17T05:48:54.503Z,1.40
2023-01-17T05:49:55.805Z,1.35
2023-01-17T05:50:57.312Z,1.34
2023-01-17T05:51:58.624Z,1.33
2023-01-17T05:53:01.652Z,1.31
2023-01-17T05:54:04.259Z,1.32
2023-01-17T05:55:05.782Z,1.29
2023-01-17T05:56:07.115Z,1.28
2023-01-17T05:57:08.465Z,1.27
2023-01-17T05:58:18.815Z,1.27
2023-01-17T05:59:32.250Z,1.23
2023-01-17T06:00:37.682Z,1.19
2023-01-17T06:01:39.217Z,1.17
2023-01-17T06:02:40.900Z,1.14
2023-01-17T06:03:42.287Z,1.14
2023-01-17T06:04:43.518Z,1.15
2023-01-17T06:05:44.970Z,1.11
2023-01-17T06:06:46.606Z,1.07
2023-01-17T06:07:48.134Z,1.09
2023-01-17T06:08:50.917Z,1.08
2023-01-17T06:09:52.305Z,1.07
2023-01-17T06:10:53.578Z,1.05
2023-01-17T06:11:55.059Z,1.02
2023-01-17T06:13:06.560Z,1.04
2023-01-17T06:14:08.961Z,1.01
2023-01-17T06:15:10.454Z,1.00
2023-01-17T06:16:11.875Z,0.99
2023-01-17T06:17:13.243Z,0.96
2023-01-17T06:18:16.910Z,0.95
2023-01-17T06:19:18.207Z,0.96
2023-01-17T06:20:19.654Z,0.94
2023-01-17T06:21:21.030Z,0.93
2023-01-17T06:22:23.841Z,0.89
2023-01-17T06:23:25.059Z,0.86
2023-01-17T06:24:27.697Z,0.81
2023-01-17T06:25:30.569Z,0.80
2023-01-17T06:26:31.785Z,0.78
2023-01-17T06:27:33.081Z,0.77
2023-01-17T06:28:34.361Z,0.75
2023-01-17T06:29:35.585Z,0.73
2023-01-17T06:30:36.826Z,0.72
2023-01-17T06:31:38.168Z,0.69
2023-01-17T06:32:39.678Z,0.70
2023-01-17T06:33:40.912Z,0.69
2023-01-17T06:34:42.238Z,0.67
2023-01-17T06:35:51.160Z,0.68
2023-01-17T06:36:52.534Z,0.66
2023-01-17T06:37:54.199Z,0.66
2023-01-17T06:38:57.350Z,0.68
2023-01-17T06:39:58.598Z,0.68
2023-01-17T06:41:03.509Z,0.67
2023-01-17T06:42:04.816Z,0.69
2023-01-17T06:43:06.029Z,0.69
2023-01-17T06:44:10.553Z,0.71
2023-01-17T06:45:11.845Z,0.70
2023-01-17T06:46:13.151Z,0.69
2023-01-17T06:47:14.422Z,0.66
2023-01-17T06:48:15.684Z,0.64
2023-01-17T06:49:16.993Z,0.65
2023-01-17T06:50:18.295Z,0.64
2023-01-17T06:51:19.581Z,0.63
2023-01-17T06:52:20.870Z,0.61
2023-01-17T06:53:22.314Z,0.61
2023-01-17T06:54:25.754Z,0.60
2023-01-17T06:55:28.136Z,0.61
2023-01-17T06:56:32.933Z,0.59
2023-01-17T06:57:34.184Z,0.61
2023-01-17T06:58:35.958Z,0.57
2023-01-17T06:59:37.293Z,0.56
2023-01-17T07:00:40.753Z,0.54
2023-01-17T07:01:42.622Z,0.54
2023-01-17T07:02:44.037Z,0.53
2023-01-17T07:03:45.412Z,0.52
2023-01-17T07:04:47.941Z,0.53
2023-01-17T07:05:49.813Z,0.52
2023-01-17T07:06:51.065Z,0.53
2023-01-17T07:07:53.708Z,0.51
2023-01-17T07:08:55.813Z,0.50
2023-01-17T07:09:57.050Z,0.50
2023-01-17T07:10:59.826Z,0.50
2023-01-17T07:12:01.577Z,0.51
2023-01-17T07:13:02.825Z,0.53
2023-01-17T07:14:04.143Z,0.52
2023-01-17T07:15:06.025Z,0.54
2023-01-17T07:16:08.103Z,0.53
2023-01-17T07:17:09.436Z,0.53
2023-01-17T07:18:10.712Z,0.53
2023-01-17T07:19:12.188Z,0.52
2023-01-17T07:20:13.471Z,0.54
2023-01-17T07:21:16.384Z,0.56
2023-01-17T07:22:17.579Z,0.61
2023-01-17T07:23:19.767Z,0.63
2023-01-17T07:24:21.611Z,0.65
2023-01-17T07:25:22.865Z,0.67
2023-01-17T07:26:24.298Z,0.68
2023-01-17T07:27:26.489Z,0.70
2023-01-17T07:28:28.063Z,0.66
2023-01-17T07:29:29.329Z,0.72
2023-01-17T07:30:30.602Z,0.80
2023-01-17T07:31:32.068Z,0.76
2023-01-17T07:32:33.274Z,0.76
2023-01-17T07:33:34.921Z,0.72
2023-01-17T07:34:37.365Z,0.69
2023-01-17T07:35:38.614Z,0.64
2023-01-17T07:36:39.897Z,0.63
2023-01-17T07:37:46.549Z,0.65
2023-01-17T07:38:47.728Z,0.66
2023-01-17T07:39:48.980Z,0.66
2023-01-17T07:40:50.149Z,0.68
2023-01-17T07:41:51.377Z,0.69
2023-01-17T07:42:59.958Z,0.71
2023-01-17T07:44:01.254Z,0.73
2023-01-17T07:45:02.576Z,0.75
2023-01-17T07:46:05.701Z,0.80
2023-01-17T07:47:06.944Z,0.81
2023-01-17T07:48:08.215Z,0.80
2023-01-17T07:49:09.453Z,0.81
2023-01-17T07:50:11.305Z,0.82
2023-01-17T07:51:12.680Z,0.83
2023-01-17T07:52:13.983Z,0.84
2023-01-17T07:53:15.285Z,0.85
2023-01-17T07:54:17.145Z,0.83
2023-01-17T07:55:18.417Z,0.83
2023-01-17T07:56:21.075Z,0.81
2023-01-17T07:57:22.738Z,0.80
2023-01-17T07:58:23.988Z,0.81
2023-01-17T07:59:25.217Z,0.79
2023-01-17T08:00:26.584Z,0.78
2023-01-17T08:01:29.643Z,0.78
2023-01-17T08:02:30.941Z,0.78
2023-01-17T08:03:32.561Z,0.79
2023-01-17T08:04:33.798Z,0.79
2023-01-17T08:05:35.055Z,0.80
2023-01-17T08:06:37.163Z,0.82
2023-01-17T08:07:38.366Z,0.77
2023-01-17T08:08:39.611Z,0.74
2023-01-17T08:09:41.643Z,0.73
2023-01-17T08:10:43.208Z,0.72
2023-01-17T08:11:44.421Z,0.70
2023-01-17T08:12:46.605Z,0.69
2023-01-17T08:13:47.958Z,0.66
2023-01-17T08:14:49.198Z,0.66
2023-01-17T08:15:50.573Z,0.68
2023-01-17T08:16:51.792Z,0.68
2023-01-17T08:17:53.247Z,0.68
2023-01-17T08:18:54.918Z,0.69
2023-01-17T08:19:56.091Z,0.70
2023-01-17T08:20:57.481Z,0.69
2023-01-17T08:21:58.677Z,0.69
2023-01-17T08:23:00.060Z,0.69
2023-01-17T08:24:01.425Z,0.70
2023-01-17T08:25:02.684Z,0.70
2023-01-17T08:26:03.947Z,0.72
2023-01-17T08:27:05.150Z,0.73
2023-01-17T08:28:06.706Z,0.73
2023-01-17T08:29:08.715Z,0.76
2023-01-17T08:30:10.295Z,0.78
2023-01-17T08:31:12.012Z,0.80
2023-01-17T08:32:13.393Z,0.82
2023-01-17T08:33:14.631Z,0.87
2023-01-17T08:34:16.017Z,0.91
2023-01-17T08:35:17.394Z,0.95
2023-01-17T08:36:18.574Z,0.99
2023-01-17T08:37:20.486Z,1.03
2023-01-17T08:38:21.885Z,1.09
2023-01-17T08:39:23.090Z,1.20
2023-01-17T08:40:24.615Z,1.28
2023-01-17T08:41:26.040Z,1.31
2023-01-17T08:42:27.780Z,1.35
2023-01-17T08:43:29.382Z,1.41
2023-01-17T08:44:30.650Z,1.50
2023-01-17T08:45:32.109Z,1.56
2023-01-17T08:46:33.341Z,1.58
2023-01-17T08:47:37.002Z,1.59
2023-01-17T08:48:38.219Z,1.60
2023-01-17T08:49:39.620Z,1.64
2023-01-17T08:50:40.912Z,1.65
2023-01-17T08:51:42.095Z,1.68
2023-01-17T08:52:43.282Z,1.72
2023-01-17T08:53:46.517Z,1.74
2023-01-17T08:54:47.897Z,1.82
2023-01-17T08:55:49.262Z,1.84
2023-01-17T08:56:50.511Z,1.85
2023-01-17T08:57:52.317Z,1.87
2023-01-17T08:58:53.623Z,1.90
2023-01-17T08:59:54.939Z,1.93
2023-01-17T09:01:00.265Z,1.96
2023-01-17T09:02:01.667Z,2.00
2023-01-17T09:03:02.984Z,2.03
2023-01-17T09:04:04.458Z,2.05
2023-01-17T09:05:06.200Z,2.08
2023-01-17T09:06:12.344Z,2.11
2023-01-17T09:07:14.257Z,2.15
2023-01-17T09:08:15.568Z,2.17
2023-01-17T09:09:17.399Z,2.24
2023-01-17T09:10:18.673Z,2.27
2023-01-17T09:11:19.946Z,2.29
2023-01-17T09:12:21.272Z,2.31
2023-01-17T09:13:22.549Z,2.34
2023-01-17T09:15:40.581Z,2.36
2023-01-17T09:16:42.060Z,2.38
2023-01-17T09:17:43.380Z,2.43
2023-01-17T09:18:44.791Z,2.48
2023-01-17T09:19:49.147Z,2.54
2023-01-17T09:20:50.437Z,2.58
2023-01-17T09:21:51.666Z,2.63
2023-01-17T09:22:52.836Z,2.64
2023-01-17T09:23:54.745Z,2.62
2023-01-17T09:24:57.139Z,2.65
2023-01-17T09:25:59.620Z,2.75
2023-01-17T09:27:00.874Z,2.76
2023-01-17T09:28:02.101Z,2.77
2023-01-17T09:29:03.613Z,2.73
2023-01-17T09:30:05.226Z,2.72
2023-01-17T09:31:07.598Z,2.76
2023-01-17T09:32:08.900Z,2.76
2023-01-17T09:33:10.236Z,2.77
2023-01-17T09:34:11.440Z,2.80
2023-01-17T09:35:12.856Z,2.79
2023-01-17T09:36:15.343Z,2.77
2023-01-17T09:37:17.169Z,2.79
2023-01-17T09:38:18.537Z,2.78
2023-01-17T09:39:19.701Z,2.86
2023-01-17T09:40:23.671Z,2.83
2023-01-17T09:41:27.931Z,2.83
2023-01-17T09:42:37.099Z,2.86
2023-01-17T09:43:45.423Z,2.88
2023-01-17T09:44:47.712Z,2.85
2023-01-17T09:45:49.354Z,2.88
2023-01-17T09:46:52.094Z,2.93
2023-01-17T09:47:54.523Z,2.91
2023-01-17T09:49:02.748Z,2.95
2023-01-17T09:50:22.531Z,2.91
2023-01-17T09:51:24.260Z,2.85
2023-01-17T09:52:28.947Z,2.86
2023-01-17T09:53:34.502Z,2.84
2023-01-17T09:54:38.473Z,2.78
2023-01-17T09:55:47.751Z,2.80
2023-01-17T09:57:00.908Z,2.84
2023-01-17T09:58:11.776Z,2.78
2023-01-17T09:59:35.797Z,2.77
2023-01-17T10:00:42.669Z,2.76
2023-01-17T10:01:44.245Z,2.75
2023-01-17T10:03:03.764Z,2.73
2023-01-17T10:04:23.453Z,2.71
2023-01-17T10:05:28.573Z,2.75
2023-01-17T10:06:56.599Z,2.91
2023-01-17T10:07:57.975Z,2.94
2023-01-17T10:09:17.882Z,2.98
2023-01-17T10:10:25.601Z,2.93
2023-01-17T10:11:35.892Z,2.91
2023-01-17T10:12:49.709Z,2.96
2023-01-17T10:13:56.930Z,2.94
2023-01-17T10:15:14.624Z,2.93
2023-01-17T10:16:28.202Z,2.94
2023-01-17T10:17:50.637Z,3.03
2023-01-17T10:19:00.872Z,3.06
2023-01-17T10:20:20.769Z,3.06
2023-01-17T10:21:31.167Z,3.05
2023-01-17T10:22:54.755Z,3.06
2023-01-17T10:24:09.617Z,3.11
2023-01-17T10:25:14.048Z,3.17
2023-01-17T10:26:23.856Z,3.20
2023-01-17T10:27:28.374Z,3.18
2023-01-17T10:28:34.150Z,3.22
2023-01-17T10:29:35.807Z,3.20
2023-01-17T10:30:39.064Z,3.22
2023-01-17T10:31:44.998Z,3.28
2023-01-17T10:32:47.856Z,3.22
2023-01-17T10:33:53.285Z,3.33
2023-01-17T10:34:54.639Z,3.36
2023-01-17T10:36:01.022Z,3.49
2023-01-17T10:37:15.251Z,3.47
2023-01-17T10:38:18.793Z,3.50
2023-01-17T10:39:22.408Z,3.51
2023-01-17T10:40:28.205Z,3.46
2023-01-17T10:41:37.923Z,3.41
2023-01-17T10:42:49.739Z,3.38
2023-01-17T10:43:51.007Z,3.45
2023-01-17T10:45:01.479Z,3.49
2023-01-17T10:46:02.833Z,3.47
2023-01-17T10:47:11.771Z,3.45
2023-01-17T10:48:16.405Z,3.46
2023-01-17T10:49:19.974Z,3.49
2023-01-17T10:50:23.228Z,3.50
2023-01-17T10:51:42.683Z,3.52
2023-01-17T10:52:59.647Z,3.62
2023-01-17T10:54:08.892Z,3.80
2023-01-17T10:55:37.091Z,3.82
2023-01-17T10:56:40.270Z,3.79
2023-01-17T10:57:43.495Z,3.82
2023-01-17T10:58:44.951Z,3.79
2023-01-17T10:59:46.199Z,3.79
2023-01-17T11:00:47.674Z,3.93
2023-01-17T11:01:51.077Z,3.88
2023-01-17T11:02:52.661Z,3.83
2023-01-17T11:03:54.036Z,3.90
2023-01-17T11:04:56.623Z,3.93
2023-01-17T11:06:14.447Z,3.92
2023-01-17T11:07:17.967Z,3.90
2023-01-17T11:08:19.927Z,3.90
2023-01-17T11:09:36.767Z,3.91
2023-01-17T11:10:41.509Z,3.93
2023-01-17T11:11:50.468Z,3.94
2023-01-17T11:12:51.782Z,3.94
2023-01-17T11:13:54.398Z,3.94
2023-01-17T11:14:58.854Z,4.00
2023-01-17T11:16:04.925Z,4.01
2023-01-17T11:17:06.782Z,4.13
2023-01-17T11:18:14.864Z,4.20
2023-01-17T11:19:21.036Z,4.26
2023-01-17T11:20:25.364Z,4.21
2023-01-17T11:21:27.263Z,4.13
2023-01-17T11:22:30.747Z,4.10
2023-01-17T11:23:33.538Z,4.12
2023-01-17T11:24:36.165Z,4.06
2023-01-17T11:25:37.706Z,4.01
2023-01-17T11:26:45.600Z,3.99
2023-01-17T11:27:56.807Z,3.93
2023-01-17T11:29:25.499Z,3.98
2023-01-17T11:30:26.710Z,3.98
2023-01-17T11:31:28.113Z,3.97
2023-01-17T11:32:31.510Z,3.97
2023-01-17T11:33:49.313Z,3.94
2023-01-17T11:35:05.206Z,4.06
2023-01-17T11:36:06.607Z,4.13
2023-01-17T11:37:28.054Z,4.21
2023-01-17T11:38:29.414Z,4.25
2023-01-17T11:39:30.679Z,4.33
2023-01-17T11:40:39.947Z,4.36
2023-01-17T11:43:01.233Z,4.32
2023-01-17T11:44:03.209Z,4.33
2023-01-17T11:45:23.308Z,4.27
2023-01-17T11:46:24.955Z,4.25
2023-01-17T11:47:26.295Z,4.30
2023-01-17T11:48:33.024Z,4.32
2023-01-17T11:49:34.302Z,4.35
2023-01-17T11:50:36.714Z,4.36
2023-01-17T11:51:41.871Z,4.42
2023-01-17T11:52:43.139Z,4.60
2023-01-17T11:53:45.238Z,4.63
2023-01-17T11:54:47.640Z,4.67
2023-01-17T11:58:35.496Z,4.76
2023-01-17T11:59:37.950Z,4.84
2023-01-17T12:00:43.663Z,4.87
2023-01-17T12:02:03.588Z,4.80
2023-01-17T12:03:10.651Z,4.72
2023-01-17T12:04:11.896Z,4.67
2023-01-17T12:05:20.015Z,4.68
2023-01-17T12:06:27.785Z,4.67
2023-01-17T12:07:31.668Z,4.66
2023-01-17T12:08:32.915Z,4.65
2023-01-17T12:09:39.944Z,4.63
2023-01-17T12:10:59.663Z,4.64
2023-01-17T12:12:07.180Z,4.63
2023-01-17T12:13:14.032Z,4.62
2023-01-17T12:14:25.231Z,4.62
2023-01-17T12:15:26.639Z,4.63
2023-01-17T12:16:42.877Z,4.68
2023-01-17T12:17:47.192Z,4.75
2023-01-17T12:18:53.305Z,4.77
2023-01-17T12:20:01.754Z,4.80
2023-01-17T12:21:09.048Z,4.77
2023-01-17T12:22:10.221Z,4.77
2023-01-17T12:23:30.370Z,4.71
2023-01-17T12:24:50.174Z,4.62
2023-01-17T12:25:54.156Z,4.58
2023-01-17T12:27:09.250Z,4.54
2023-01-17T12:28:19.234Z,4.60
2023-01-17T12:29:20.475Z,4.55
2023-01-17T12:30:21.671Z,4.49
2023-01-17T12:31:26.139Z,4.44
2023-01-17T12:32:46.197Z,4.40
2023-01-17T12:33:50.334Z,4.41
2023-01-17T12:34:51.570Z,4.42
2023-01-17T12:35:57.623Z,4.46
2023-01-17T12:36:58.842Z,4.43
2023-01-17T12:38:05.708Z,4.44
2023-01-17T12:39:07.952Z,4.50
2023-01-17T12:40:27.909Z,4.53
2023-01-17T12:41:52.170Z,4.47
2023-01-17T12:42:58.916Z,4.50
2023-01-17T12:44:00.619Z,4.51
2023-01-17T12:45:01.896Z,4.50
2023-01-17T12:46:14.919Z,4.49
2023-01-17T12:47:18.222Z,4.57
2023-01-17T12:48:20.338Z,4.56
2023-01-17T12:49:42.532Z,4.65
2023-01-17T12:50:46.511Z,4.60
2023-01-17T12:51:52.576Z,4.61
2023-01-17T12:53:00.721Z,4.62
2023-01-17T12:54:21.066Z,4.67
2023-01-17T12:55:42.639Z,4.73
2023-01-17T12:57:12.099Z,4.70
2023-01-17T12:58:18.762Z,4.69
2023-01-17T12:59:25.579Z,4.74
2023-01-17T13:00:28.414Z,4.84
2023-01-17T13:01:30.687Z,4.88
2023-01-17T13:02:52.735Z,4.88
2023-01-17T13:04:01.969Z,4.88
2023-01-17T13:05:03.217Z,4.86
2023-01-17T13:06:05.915Z,4.85
2023-01-17T13:07:25.816Z,4.88
2023-01-17T13:08:39.116Z,4.87
2023-01-17T13:09:45.832Z,4.90
2023-01-17T13:10:52.723Z,4.93
2023-01-17T13:12:00.853Z,4.94
2023-01-17T13:13:13.174Z,4.94
2023-01-17T13:14:14.448Z,4.95
2023-01-17T13:15:16.735Z,5.02
2023-01-17T13:16:21.115Z,4.97
2023-01-17T13:17:40.738Z,4.99
2023-01-17T13:18:45.058Z,5.02
2023-01-17T13:20:09.498Z,5.01
2023-01-17T13:21:10.719Z,5.03
2023-01-17T13:22:13.880Z,5.09
2023-01-17T13:23:21.220Z,5.06
2023-01-17T13:24:22.449Z,5.01
2023-01-17T13:25:35.557Z,4.99
2023-01-17T13:26:59.858Z,4.94
2023-01-17T13:28:14.181Z,4.99
2023-01-17T13:29:33.721Z,5.03
2023-01-17T13:30:35.131Z,5.06
2023-01-17T13:31:45.073Z,5.09
2023-01-17T13:33:01.886Z,5.06
2023-01-17T13:34:15.192Z,5.01
2023-01-17T13:35:35.715Z,5.04
2023-01-17T13:36:45.953Z,5.01
2023-01-17T13:38:05.920Z,5.11
2023-01-17T13:39:07.144Z,5.08
2023-01-17T13:40:29.459Z,5.01
2023-01-17T13:41:36.558Z,5.00
2023-01-17T13:42:49.580Z,5.01
2023-01-17T13:43:51.090Z,5.01
2023-01-17T13:44:52.418Z,4.97
2023-01-17T13:45:55.652Z,4.98
2023-01-17T13:47:01.664Z,4.97
2023-01-17T13:48:11.765Z,4.96
2023-01-17T13:49:31.622Z,4.99
2023-01-17T13:50:38.621Z,5.01
2023-01-17T13:52:01.484Z,4.96
2023-01-17T13:53:21.428Z,4.91
2023-01-17T13:54:32.093Z,4.97
2023-01-17T13:55:46.403Z,4.93
2023-01-17T13:56:47.682Z,4.92
2023-01-17T13:57:48.965Z,4.87
2023-01-17T13:58:50.224Z,4.90
2023-01-17T13:59:52.105Z,4.87
2023-01-17T14:00:53.478Z,4.87
2023-01-17T14:01:55.403Z,4.84
2023-01-17T14:02:56.676Z,4.83
2023-01-17T14:03:57.916Z,4.84
2023-01-17T14:05:06.818Z,4.80
2023-01-17T14:06:26.733Z,4.80
2023-01-17T14:07:28.927Z,4.84
2023-01-17T14:08:30.188Z,4.91
2023-01-17T14:09:40.648Z,4.87
2023-01-17T14:10:43.505Z,4.85
2023-01-17T14:11:50.714Z,4.81
2023-01-17T14:12:51.979Z,4.85
2023-01-17T14:13:53.476Z,4.87
2023-01-17T14:14:55.787Z,4.82
2023-01-17T14:15:57.228Z,4.84
2023-01-17T14:17:18.478Z,4.78
2023-01-17T14:18:31.708Z,4.81
2023-01-17T14:19:36.141Z,4.76
2023-01-17T14:20:45.199Z,4.80
2023-01-17T14:21:46.534Z,4.80
2023-01-17T14:22:51.358Z,4.79